Time;durP1;ratioP1;P1;durP2;ratioP2;P2;SDS_P1;SDS_P2;PMS_P1;PMS_P2;Temp;Humidity;BMP_temperature;BMP_pressure;BME280_temperature;BME280_humidity;BME280_pressure;Samples;Min_cycle;Max_cycle;Signal;HPM_P1;HPM_P2
2021/07/31 00:01:13;;;;;;;;;;;18.90;69.80;;;;;;492023;240;1184;-45
2021/07/31 00:03:14;;;;;;;;;;;18.80;69.80;;;;;;491597;240;1217;-45
2021/07/31 00:05:15;;;;;;;;;;;18.80;69.90;;;;;;491613;240;1036;-45
2021/07/31 00:07:17;;;;;;;;;;;18.80;69.80;;;;;;491795;240;1544;-45
2021/07/31 00:09:18;;;;;;;;;;;18.80;69.90;;;;;;491605;240;1162;-45
2021/07/31 00:11:19;;;;;;;;;;;18.80;69.70;;;;;;491722;240;2141;-45
2021/07/31 00:13:20;;;;;;;;;;;18.80;69.70;;;;;;491541;240;1214;-45
2021/07/31 00:15:22;;;;;;;;;;;18.80;69.80;;;;;;491981;240;1103;-45
2021/07/31 00:17:24;;;;;;;;;;;18.80;69.80;;;;;;491548;240;1433;-45
2021/07/31 00:19:25;;;;;;;;;;;18.80;69.90;;;;;;491594;240;1070;-45
2021/07/31 00:21:26;;;;;;;;;;;18.80;69.90;;;;;;491892;240;1119;-45
2021/07/31 00:23:27;;;;;;;;;;;18.80;69.90;;;;;;491501;240;1242;-45
2021/07/31 00:25:29;;;;;;;;;;;18.80;69.90;;;;;;491531;240;1048;-45
2021/07/31 00:27:30;;;;;;;;;;;18.80;69.90;;;;;;491584;240;1251;-45
2021/07/31 00:29:31;;;;;;;;;;;18.80;69.90;;;;;;491588;240;1111;-45
2021/07/31 00:31:33;;;;;;;;;;;18.80;69.80;;;;;;491658;240;2177;-45
2021/07/31 00:33:34;;;;;;;;;;;18.80;69.90;;;;;;491653;240;1049;-45
2021/07/31 00:35:35;;;;;;;;;;;18.80;69.90;;;;;;492050;240;1055;-45
2021/07/31 00:37:37;;;;;;;;;;;18.80;69.80;;;;;;491541;240;1140;-45
2021/07/31 00:39:41;;;;;;;;;;;18.80;69.80;;;;;;491533;240;1179;-45
2021/07/31 00:41:42;;;;;;;;;;;18.80;69.90;;;;;;491843;240;1076;-45
2021/07/31 00:43:43;;;;;;;;;;;18.80;70.00;;;;;;491759;240;1055;-45
2021/07/31 00:45:45;;;;;;;;;;;18.80;69.90;;;;;;491995;240;1039;-45
2021/07/31 00:47:46;;;;;;;;;;;18.80;69.80;;;;;;491697;240;1118;-45
2021/07/31 00:49:47;;;;;;;;;;;18.80;69.80;;;;;;491571;240;1079;-45
2021/07/31 00:51:49;;;;;;;;;;;18.80;69.80;;;;;;491621;240;2145;-45
2021/07/31 00:53:50;;;;;;;;;;;18.80;69.90;;;;;;491560;240;1404;-45
2021/07/31 00:55:53;;;;;;;;;;;18.80;69.90;;;;;;491577;240;1121;-45
2021/07/31 00:57:53;;;;;;;;;;;18.80;69.90;;;;;;492027;240;1353;-45
2021/07/31 00:59:54;;;;;;;;;;;18.80;69.90;;;;;;491684;240;1151;-45
2021/07/31 01:01:55;;;;;;;;;;;18.80;69.90;;;;;;491789;240;1236;-45
2021/07/31 01:03:57;;;;;;;;;;;18.80;69.90;;;;;;491850;240;1290;-45
2021/07/31 01:05:58;;;;;;;;;;;18.80;69.90;;;;;;492059;240;1057;-45
2021/07/31 01:08:00;;;;;;;;;;;18.80;69.90;;;;;;491641;240;1028;-45
2021/07/31 01:10:01;;;;;;;;;;;18.80;69.90;;;;;;491626;240;1214;-45
2021/07/31 01:12:03;;;;;;;;;;;18.80;69.80;;;;;;491629;240;2132;-45
2021/07/31 01:14:04;;;;;;;;;;;18.80;69.90;;;;;;491921;240;1147;-45
2021/07/31 01:16:06;;;;;;;;;;;18.80;70.00;;;;;;491794;240;1121;-45
2021/07/31 01:18:07;;;;;;;;;;;18.80;69.90;;;;;;491546;240;2119;-45
2021/07/31 01:20:08;;;;;;;;;;;18.80;69.70;;;;;;491574;240;1176;-45
2021/07/31 01:22:09;;;;;;;;;;;18.80;69.70;;;;;;491551;240;1073;-45
2021/07/31 01:24:11;;;;;;;;;;;18.80;69.70;;;;;;491759;240;1086;-45
2021/07/31 01:26:12;;;;;;;;;;;18.80;69.80;;;;;;491959;240;1161;-45
2021/07/31 01:28:14;;;;;;;;;;;18.80;69.80;;;;;;491496;240;1034;-45
2021/07/31 01:30:15;;;;;;;;;;;18.80;69.80;;;;;;491579;240;1589;-45
2021/07/31 01:32:16;;;;;;;;;;;18.80;69.90;;;;;;491656;240;2132;-45
2021/07/31 01:34:18;;;;;;;;;;;18.80;69.90;;;;;;491574;240;1060;-45
2021/07/31 01:36:19;;;;;;;;;;;18.80;69.90;;;;;;491495;240;1339;-45
2021/07/31 01:38:20;;;;;;;;;;;18.80;70.00;;;;;;491910;240;1052;-45
2021/07/31 01:40:22;;;;;;;;;;;18.80;69.90;;;;;;491506;240;1156;-45
2021/07/31 01:42:23;;;;;;;;;;;18.80;69.90;;;;;;491483;240;1216;-45
2021/07/31 01:44:24;;;;;;;;;;;18.80;69.80;;;;;;491658;240;1059;-45
2021/07/31 01:46:26;;;;;;;;;;;18.80;69.80;;;;;;491950;240;1466;-45
2021/07/31 01:48:27;;;;;;;;;;;18.80;69.90;;;;;;491627;240;1298;-45
2021/07/31 01:50:28;;;;;;;;;;;18.80;69.80;;;;;;491837;240;1147;-45
2021/07/31 01:52:29;;;;;;;;;;;18.80;69.90;;;;;;491977;240;2302;-45
2021/07/31 01:54:31;;;;;;;;;;;18.80;69.90;;;;;;491611;240;1205;-45
2021/07/31 01:56:32;;;;;;;;;;;18.80;69.90;;;;;;491403;240;1348;-45
2021/07/31 01:58:33;;;;;;;;;;;18.80;69.90;;;;;;492053;240;1046;-45
2021/07/31 02:00:35;;;;;;;;;;;18.80;69.80;;;;;;491631;240;1198;-45
2021/07/31 02:02:36;;;;;;;;;;;18.80;69.80;;;;;;491458;240;1114;-45
2021/07/31 02:04:37;;;;;;;;;;;18.80;69.90;;;;;;491538;240;1341;-45
2021/07/31 02:06:39;;;;;;;;;;;18.80;69.90;;;;;;491553;240;1189;-45
2021/07/31 02:08:40;;;;;;;;;;;18.80;69.80;;;;;;491634;240;1108;-45
2021/07/31 02:10:41;;;;;;;;;;;18.80;69.80;;;;;;491627;240;1242;-45
2021/07/31 02:12:43;;;;;;;;;;;18.80;69.80;;;;;;491740;240;2124;-45
2021/07/31 02:14:45;;;;;;;;;;;18.80;69.90;;;;;;491622;240;1102;-45
2021/07/31 02:16:46;;;;;;;;;;;18.80;69.90;;;;;;491519;240;1217;-45
2021/07/31 02:18:48;;;;;;;;;;;18.80;70.00;;;;;;491624;240;1066;-45
2021/07/31 02:20:49;;;;;;;;;;;18.80;69.90;;;;;;491711;240;1235;-45
2021/07/31 02:22:50;;;;;;;;;;;18.80;69.90;;;;;;492014;240;1162;-45
2021/07/31 02:24:52;;;;;;;;;;;18.80;69.90;;;;;;491787;240;1171;-45
2021/07/31 02:26:53;;;;;;;;;;;18.80;69.90;;;;;;491871;240;1317;-45
2021/07/31 02:28:54;;;;;;;;;;;18.70;69.90;;;;;;491559;240;1176;-45
2021/07/31 02:30:56;;;;;;;;;;;18.80;69.90;;;;;;491787;240;1166;-45
2021/07/31 02:32:57;;;;;;;;;;;18.80;70.00;;;;;;491551;240;2188;-45
2021/07/31 02:34:58;;;;;;;;;;;18.80;70.00;;;;;;492043;240;1090;-45
2021/07/31 02:37:00;;;;;;;;;;;18.80;70.00;;;;;;491944;240;1301;-45
2021/07/31 02:39:01;;;;;;;;;;;18.80;69.90;;;;;;491808;240;1161;-45
2021/07/31 02:41:02;;;;;;;;;;;18.80;70.00;;;;;;491562;240;1440;-45
2021/07/31 02:43:03;;;;;;;;;;;18.80;70.00;;;;;;491583;240;1235;-45
2021/07/31 02:45:05;;;;;;;;;;;18.80;69.90;;;;;;492088;240;1082;-45
2021/07/31 02:47:07;;;;;;;;;;;18.80;69.90;;;;;;491532;240;1347;-45
2021/07/31 02:49:08;;;;;;;;;;;18.80;69.90;;;;;;491992;240;1049;-45
2021/07/31 02:51:09;;;;;;;;;;;18.80;69.90;;;;;;491797;240;1146;-45
2021/07/31 02:53:11;;;;;;;;;;;18.80;69.90;;;;;;491811;240;2176;-45
2021/07/31 02:55:12;;;;;;;;;;;18.80;70.00;;;;;;491839;240;1120;-45
2021/07/31 02:57:13;;;;;;;;;;;18.80;69.90;;;;;;491629;240;1226;-45
2021/07/31 02:59:15;;;;;;;;;;;18.70;69.90;;;;;;491607;240;1046;-45
2021/07/31 03:01:16;;;;;;;;;;;18.80;70.00;;;;;;491701;240;1366;-45
2021/07/31 03:03:19;;;;;;;;;;;18.80;69.90;;;;;;491624;240;1057;-45
2021/07/31 03:05:21;;;;;;;;;;;18.80;69.80;;;;;;491607;240;1053;-45
2021/07/31 03:07:22;;;;;;;;;;;18.70;69.90;;;;;;491606;240;1059;-45
2021/07/31 03:09:23;;;;;;;;;;;18.70;70.00;;;;;;492064;240;1041;-46
2021/07/31 03:11:25;;;;;;;;;;;18.70;69.90;;;;;;491584;240;1192;-45
2021/07/31 03:13:26;;;;;;;;;;;18.70;69.90;;;;;;491980;240;2179;-45
2021/07/31 03:15:27;;;;;;;;;;;18.70;69.90;;;;;;491816;240;1073;-45
2021/07/31 03:17:29;;;;;;;;;;;18.70;69.90;;;;;;491803;240;1367;-45
2021/07/31 03:19:30;;;;;;;;;;;18.80;70.00;;;;;;492055;240;1074;-45
2021/07/31 03:21:31;;;;;;;;;;;18.70;70.00;;;;;;491652;240;1037;-45
2021/07/31 03:23:33;;;;;;;;;;;18.70;70.00;;;;;;492038;240;1206;-45
2021/07/31 03:25:34;;;;;;;;;;;18.70;69.90;;;;;;491804;240;1172;-45
2021/07/31 03:27:35;;;;;;;;;;;18.80;69.90;;;;;;491606;240;1211;-45
2021/07/31 03:29:36;;;;;;;;;;;18.70;69.90;;;;;;491587;240;1079;-45
2021/07/31 03:31:38;;;;;;;;;;;18.80;69.90;;;;;;491571;240;1269;-45
2021/07/31 03:33:39;;;;;;;;;;;18.70;69.90;;;;;;491775;240;2191;-45
2021/07/31 03:35:41;;;;;;;;;;;18.70;69.90;;;;;;491576;240;2692;-45
2021/07/31 03:37:42;;;;;;;;;;;18.70;69.90;;;;;;491543;240;1112;-45
2021/07/31 03:39:43;;;;;;;;;;;18.70;70.00;;;;;;491669;240;1090;-45
2021/07/31 03:41:44;;;;;;;;;;;18.80;69.90;;;;;;491559;240;1436;-45
2021/07/31 03:43:46;;;;;;;;;;;18.80;69.90;;;;;;491657;240;1057;-45
2021/07/31 03:45:47;;;;;;;;;;;18.80;69.80;;;;;;491669;240;1028;-45
2021/07/31 03:47:48;;;;;;;;;;;18.80;69.90;;;;;;491993;240;1457;-45
2021/07/31 03:49:50;;;;;;;;;;;18.80;69.80;;;;;;491860;240;955;-45
2021/07/31 03:51:51;;;;;;;;;;;18.80;69.80;;;;;;491577;240;1304;-45
2021/07/31 03:53:52;;;;;;;;;;;18.80;69.90;;;;;;492039;240;2175;-45
2021/07/31 03:55:54;;;;;;;;;;;18.70;69.90;;;;;;491840;240;1108;-45
2021/07/31 03:57:55;;;;;;;;;;;18.70;69.90;;;;;;491994;240;1045;-45
2021/07/31 03:59:56;;;;;;;;;;;18.70;69.90;;;;;;491628;240;1056;-45
2021/07/31 04:01:58;;;;;;;;;;;18.80;69.90;;;;;;491714;240;1047;-45
2021/07/31 04:03:59;;;;;;;;;;;18.70;69.90;;;;;;491646;240;1153;-45
2021/07/31 04:06:00;;;;;;;;;;;18.80;69.90;;;;;;492048;240;1089;-45
2021/07/31 04:08:02;;;;;;;;;;;18.70;69.90;;;;;;492038;240;1229;-45
2021/07/31 04:10:03;;;;;;;;;;;18.70;69.90;;;;;;491715;240;1095;-45
2021/07/31 04:12:04;;;;;;;;;;;18.70;69.90;;;;;;491607;240;1350;-45
2021/07/31 04:14:06;;;;;;;;;;;18.70;70.00;;;;;;492044;240;2184;-45
2021/07/31 04:16:07;;;;;;;;;;;18.70;69.80;;;;;;491905;240;1376;-45
2021/07/31 04:18:08;;;;;;;;;;;18.80;69.80;;;;;;491640;240;1165;-45
2021/07/31 04:20:09;;;;;;;;;;;18.80;69.90;;;;;;491620;240;1015;-45
2021/07/31 04:22:11;;;;;;;;;;;18.70;69.90;;;;;;491660;240;1406;-45
2021/07/31 04:24:12;;;;;;;;;;;18.70;69.90;;;;;;491888;240;1165;-45
2021/07/31 04:26:13;;;;;;;;;;;18.80;69.90;;;;;;491782;240;1298;-45
2021/07/31 04:28:15;;;;;;;;;;;18.80;69.80;;;;;;492077;240;1212;-45
2021/07/31 04:30:16;;;;;;;;;;;18.80;69.70;;;;;;491637;240;1111;-45
2021/07/31 04:32:17;;;;;;;;;;;18.80;69.80;;;;;;491530;240;1299;-45
2021/07/31 04:34:19;;;;;;;;;;;18.70;69.90;;;;;;491608;240;2140;-45
2021/07/31 04:36:20;;;;;;;;;;;18.70;69.90;;;;;;491670;240;1290;-45
2021/07/31 04:38:21;;;;;;;;;;;18.80;69.90;;;;;;491778;240;1270;-45
2021/07/31 04:40:23;;;;;;;;;;;18.70;69.90;;;;;;492095;240;1054;-45
2021/07/31 04:42:24;;;;;;;;;;;18.70;70.00;;;;;;491354;240;1400;-45
2021/07/31 04:44:25;;;;;;;;;;;18.70;70.00;;;;;;491565;240;1050;-45
2021/07/31 04:46:27;;;;;;;;;;;19.00;69.30;;;;;;491470;240;1345;-45
2021/07/31 04:48:28;;;;;;;;;;;19.30;67.80;;;;;;491960;240;1155;-45
2021/07/31 04:50:29;;;;;;;;;;;19.60;66.80;;;;;;491573;240;1058;-45
2021/07/31 04:52:31;;;;;;;;;;;19.80;65.90;;;;;;491967;240;1296;-45
2021/07/31 04:54:32;;;;;;;;;;;20.00;65.20;;;;;;491865;240;2199;-45
2021/07/31 04:56:33;;;;;;;;;;;20.10;64.70;;;;;;491517;240;1159;-45
2021/07/31 04:58:35;;;;;;;;;;;20.20;64.40;;;;;;491687;240;1278;-45
2021/07/31 05:00:36;;;;;;;;;;;20.30;64.20;;;;;;491589;240;1037;-45
2021/07/31 05:02:37;;;;;;;;;;;20.40;63.90;;;;;;491656;240;1184;-45
2021/07/31 05:04:38;;;;;;;;;;;20.40;63.80;;;;;;491659;240;1126;-45
2021/07/31 05:06:40;;;;;;;;;;;20.50;63.70;;;;;;491588;240;1336;-45
2021/07/31 05:08:41;;;;;;;;;;;20.50;63.50;;;;;;491627;240;1208;-45
2021/07/31 05:10:43;;;;;;;;;;;20.60;63.40;;;;;;491903;240;1074;-45
2021/07/31 05:12:44;;;;;;;;;;;20.60;63.10;;;;;;491575;240;2199;-45
2021/07/31 05:14:45;;;;;;;;;;;20.70;63.00;;;;;;492099;240;1040;-45
2021/07/31 05:16:47;;;;;;;;;;;20.70;63.00;;;;;;491523;240;1224;-45
2021/07/31 05:18:48;;;;;;;;;;;20.70;62.90;;;;;;491586;240;1058;-45
2021/07/31 05:20:49;;;;;;;;;;;20.80;62.90;;;;;;492009;240;1343;-46
2021/07/31 05:22:51;;;;;;;;;;;20.80;62.70;;;;;;492049;240;1127;-46
2021/07/31 05:24:53;;;;;;;;;;;20.90;62.70;;;;;;491827;240;1063;-45
2021/07/31 05:26:55;;;;;;;;;;;20.90;62.50;;;;;;491422;240;1468;-46
2021/07/31 05:28:56;;;;;;;;;;;20.90;62.50;;;;;;491551;240;1167;-45
2021/07/31 05:30:57;;;;;;;;;;;20.90;62.40;;;;;;491939;240;1408;-45
2021/07/31 05:32:59;;;;;;;;;;;21.00;62.30;;;;;;491480;240;2136;-45
2021/07/31 05:35:00;;;;;;;;;;;21.00;62.10;;;;;;492036;240;1047;-45
2021/07/31 05:37:01;;;;;;;;;;;21.10;62.10;;;;;;491477;240;1678;-45
2021/07/31 05:39:03;;;;;;;;;;;21.10;62.00;;;;;;492084;240;1033;-45
2021/07/31 05:41:04;;;;;;;;;;;21.10;61.90;;;;;;491552;240;1541;-45
2021/07/31 05:43:05;;;;;;;;;;;21.10;61.80;;;;;;491518;240;1304;-45
2021/07/31 05:45:07;;;;;;;;;;;21.20;61.80;;;;;;491795;240;1019;-46
2021/07/31 05:47:08;;;;;;;;;;;21.20;61.70;;;;;;491698;240;1139;-45
2021/07/31 05:49:09;;;;;;;;;;;21.20;61.80;;;;;;491722;240;1087;-46
2021/07/31 05:51:11;;;;;;;;;;;21.20;61.70;;;;;;492077;240;1064;-45
2021/07/31 05:53:12;;;;;;;;;;;21.30;61.70;;;;;;491996;240;2140;-46
2021/07/31 05:55:13;;;;;;;;;;;21.30;61.60;;;;;;491639;240;1084;-45
2021/07/31 05:57:15;;;;;;;;;;;21.30;61.60;;;;;;491648;240;1150;-46
2021/07/31 05:59:16;;;;;;;;;;;21.30;61.60;;;;;;492085;240;1090;-45
2021/07/31 06:01:17;;;;;;;;;;;21.40;61.50;;;;;;491990;240;1183;-45
2021/07/31 06:03:18;;;;;;;;;;;21.40;61.50;;;;;;491623;240;1056;-45
2021/07/31 06:05:20;;;;;;;;;;;21.40;61.50;;;;;;491980;240;1068;-45
2021/07/31 06:07:21;;;;;;;;;;;21.40;61.40;;;;;;491604;240;1430;-45
2021/07/31 06:09:23;;;;;;;;;;;21.50;61.30;;;;;;492082;240;1094;-45
2021/07/31 06:11:24;;;;;;;;;;;21.50;61.20;;;;;;491764;240;1392;-46
2021/07/31 06:13:25;;;;;;;;;;;21.50;61.20;;;;;;491556;240;2180;-46
2021/07/31 06:15:26;;;;;;;;;;;21.50;61.10;;;;;;491682;240;1093;-46
2021/07/31 06:17:28;;;;;;;;;;;21.50;61.10;;;;;;491627;240;1272;-45
2021/07/31 06:19:29;;;;;;;;;;;21.50;61.10;;;;;;491651;240;1236;-46
2021/07/31 06:21:30;;;;;;;;;;;21.60;61.10;;;;;;491547;240;1071;-45
2021/07/31 06:23:32;;;;;;;;;;;21.60;61.10;;;;;;491538;240;1229;-45
2021/07/31 06:25:33;;;;;;;;;;;21.60;61.10;;;;;;491648;240;1215;-46
2021/07/31 06:27:34;;;;;;;;;;;21.60;61.00;;;;;;491552;240;1378;-45
2021/07/31 06:29:36;;;;;;;;;;;21.60;60.90;;;;;;491607;240;1175;-45
2021/07/31 06:31:37;;;;;;;;;;;21.60;60.90;;;;;;491591;240;1179;-46
2021/07/31 06:33:38;;;;;;;;;;;21.70;60.90;;;;;;491928;240;2137;-46
2021/07/31 06:35:40;;;;;;;;;;;21.70;60.90;;;;;;491981;240;1072;-46
2021/07/31 06:37:41;;;;;;;;;;;21.70;60.80;;;;;;491580;240;1316;-46
2021/07/31 06:39:42;;;;;;;;;;;21.70;60.70;;;;;;491590;240;1066;-46
2021/07/31 06:41:44;;;;;;;;;;;21.70;61.50;;;;;;492013;240;1079;-46
2021/07/31 06:43:45;;;;;;;;;;;21.70;61.80;;;;;;491528;240;1193;-45
2021/07/31 06:45:46;;;;;;;;;;;21.50;62.20;;;;;;491969;240;1037;-45
2021/07/31 06:47:48;;;;;;;;;;;21.10;63.40;;;;;;491922;240;1151;-46
2021/07/31 06:49:49;;;;;;;;;;;20.70;64.80;;;;;;492061;240;1052;-45
2021/07/31 06:51:51;;;;;;;;;;;20.50;65.90;;;;;;491736;240;1085;-45
2021/07/31 06:53:52;;;;;;;;;;;20.30;66.50;;;;;;491605;240;2429;-46
2021/07/31 06:55:53;;;;;;;;;;;20.20;67.00;;;;;;491630;240;1068;-45
2021/07/31 06:57:54;;;;;;;;;;;20.00;67.40;;;;;;491544;240;1082;-45
2021/07/31 06:59:55;;;;;;;;;;;20.00;67.80;;;;;;491829;240;1075;-45
2021/07/31 07:01:57;;;;;;;;;;;19.90;67.90;;;;;;491537;240;1169;-45
2021/07/31 07:03:58;;;;;;;;;;;19.90;68.10;;;;;;492078;240;1160;-45
2021/07/31 07:05:59;;;;;;;;;;;19.80;68.20;;;;;;491588;240;1365;-45
2021/07/31 07:08:01;;;;;;;;;;;19.80;68.40;;;;;;491652;240;1272;-45
2021/07/31 07:10:02;;;;;;;;;;;19.70;68.50;;;;;;491885;240;1072;-45
2021/07/31 07:12:03;;;;;;;;;;;19.70;68.70;;;;;;491558;240;1343;-45
2021/07/31 07:14:05;;;;;;;;;;;19.60;68.70;;;;;;491618;240;2184;-45
2021/07/31 07:16:06;;;;;;;;;;;19.60;68.90;;;;;;491564;240;1050;-45
2021/07/31 07:18:07;;;;;;;;;;;19.60;68.80;;;;;;491541;240;1581;-45
2021/07/31 07:20:09;;;;;;;;;;;19.60;68.80;;;;;;492001;240;1099;-45
2021/07/31 07:22:10;;;;;;;;;;;19.60;68.80;;;;;;491614;240;1345;-45
2021/07/31 07:24:11;;;;;;;;;;;19.50;68.90;;;;;;492099;240;1206;-45
2021/07/31 07:26:13;;;;;;;;;;;19.50;69.10;;;;;;491914;240;1309;-45
2021/07/31 07:28:14;;;;;;;;;;;19.50;69.20;;;;;;491600;240;1180;-45
2021/07/31 07:30:15;;;;;;;;;;;19.50;69.20;;;;;;491828;240;1079;-45
2021/07/31 07:32:17;;;;;;;;;;;19.50;69.10;;;;;;491603;240;1191;-45
2021/07/31 07:34:18;;;;;;;;;;;19.50;69.20;;;;;;491602;240;2204;-45
2021/07/31 07:36:19;;;;;;;;;;;19.40;69.10;;;;;;491633;240;1132;-45
2021/07/31 07:38:20;;;;;;;;;;;19.40;69.20;;;;;;491566;240;1107;-46
2021/07/31 07:40:23;;;;;;;;;;;19.40;69.30;;;;;;491761;240;1069;-45
2021/07/31 07:42:23;;;;;;;;;;;19.30;69.20;;;;;;491476;240;1602;-45
2021/07/31 07:44:25;;;;;;;;;;;19.40;69.40;;;;;;491597;240;1086;-45
2021/07/31 07:46:26;;;;;;;;;;;19.30;69.30;;;;;;491993;240;1095;-45
2021/07/31 07:48:27;;;;;;;;;;;19.40;69.30;;;;;;491820;240;1284;-45
2021/07/31 07:50:29;;;;;;;;;;;19.30;69.20;;;;;;491634;240;1225;-45
2021/07/31 07:52:30;;;;;;;;;;;19.30;69.30;;;;;;491868;240;1346;-45
2021/07/31 07:54:31;;;;;;;;;;;19.30;69.40;;;;;;491998;240;2177;-45
2021/07/31 07:56:33;;;;;;;;;;;19.30;69.50;;;;;;491756;240;1251;-45
2021/07/31 07:58:34;;;;;;;;;;;19.30;69.50;;;;;;491481;240;1179;-45
2021/07/31 08:00:35;;;;;;;;;;;19.30;69.50;;;;;;491550;240;1062;-45
2021/07/31 08:02:37;;;;;;;;;;;19.30;69.40;;;;;;491740;240;1216;-45
2021/07/31 08:04:38;;;;;;;;;;;19.30;69.50;;;;;;491542;240;1123;-45
2021/07/31 08:06:39;;;;;;;;;;;19.30;69.50;;;;;;491549;240;1431;-45
2021/07/31 08:08:41;;;;;;;;;;;19.20;69.50;;;;;;491661;240;1108;-45
2021/07/31 08:10:42;;;;;;;;;;;19.20;69.60;;;;;;491579;240;999;-45
2021/07/31 08:12:43;;;;;;;;;;;19.20;69.50;;;;;;491843;240;1502;-45
2021/07/31 08:14:45;;;;;;;;;;;19.20;69.50;;;;;;491602;240;2191;-45
2021/07/31 08:16:46;;;;;;;;;;;19.20;69.50;;;;;;491550;240;1224;-45
2021/07/31 08:18:47;;;;;;;;;;;19.20;69.40;;;;;;491555;240;1058;-45
2021/07/31 08:20:49;;;;;;;;;;;19.20;69.50;;;;;;491850;240;1131;-45
2021/07/31 08:22:50;;;;;;;;;;;19.20;69.40;;;;;;492050;240;1136;-45
2021/07/31 08:24:52;;;;;;;;;;;19.20;69.50;;;;;;491608;240;1101;-45
2021/07/31 08:26:53;;;;;;;;;;;19.20;69.50;;;;;;491745;240;1332;-45
2021/07/31 08:28:54;;;;;;;;;;;19.20;69.50;;;;;;491511;240;1124;-45
2021/07/31 08:30:56;;;;;;;;;;;19.20;69.60;;;;;;491735;240;1454;-45
2021/07/31 08:32:57;;;;;;;;;;;19.20;69.50;;;;;;491538;240;1097;-45
2021/07/31 08:34:59;;;;;;;;;;;19.20;69.60;;;;;;491838;240;2196;-45
2021/07/31 08:37:00;;;;;;;;;;;19.20;69.60;;;;;;491598;240;2118;-45
2021/07/31 08:39:01;;;;;;;;;;;19.20;69.60;;;;;;491792;240;1041;-45
2021/07/31 08:41:03;;;;;;;;;;;19.20;69.50;;;;;;492093;240;995;-45
2021/07/31 08:43:04;;;;;;;;;;;19.20;69.60;;;;;;491742;240;2036;-45
2021/07/31 08:45:05;;;;;;;;;;;19.10;69.60;;;;;;491633;240;1159;-45
2021/07/31 08:47:06;;;;;;;;;;;19.20;69.60;;;;;;491744;240;1057;-45
2021/07/31 08:49:08;;;;;;;;;;;19.10;69.70;;;;;;491695;240;1110;-45
2021/07/31 08:51:09;;;;;;;;;;;19.10;69.60;;;;;;491544;240;1048;-45
2021/07/31 08:53:10;;;;;;;;;;;19.10;69.70;;;;;;491799;240;1058;-45
2021/07/31 08:55:12;;;;;;;;;;;19.10;69.60;;;;;;491890;240;2160;-45
2021/07/31 08:57:13;;;;;;;;;;;19.10;69.60;;;;;;491548;240;1084;-45
2021/07/31 08:59:14;;;;;;;;;;;19.10;69.60;;;;;;491840;240;1334;-45
2021/07/31 09:01:16;;;;;;;;;;;19.10;69.60;;;;;;491881;240;1122;-45
2021/07/31 09:03:17;;;;;;;;;;;19.10;69.70;;;;;;491602;240;1081;-45
2021/07/31 09:05:18;;;;;;;;;;;19.10;69.70;;;;;;491619;240;1241;-45
2021/07/31 09:07:20;;;;;;;;;;;19.20;69.60;;;;;;491538;240;1123;-45
2021/07/31 09:09:21;;;;;;;;;;;19.10;69.60;;;;;;491680;240;1056;-45
2021/07/31 09:11:22;;;;;;;;;;;19.10;69.60;;;;;;491551;240;1198;-45
2021/07/31 09:13:23;;;;;;;;;;;19.10;69.60;;;;;;492080;240;1099;-45
2021/07/31 09:15:25;;;;;;;;;;;19.10;69.60;;;;;;491674;240;2192;-45
2021/07/31 09:17:26;;;;;;;;;;;19.10;69.70;;;;;;491604;240;1265;-45
2021/07/31 09:19:28;;;;;;;;;;;19.10;69.60;;;;;;492082;240;1044;-45
2021/07/31 09:21:30;;;;;;;;;;;19.10;69.60;;;;;;491624;240;1346;-45
2021/07/31 09:23:31;;;;;;;;;;;19.10;69.80;;;;;;491946;240;1105;-45
2021/07/31 09:25:32;;;;;;;;;;;19.00;69.70;;;;;;491588;240;1435;-45
2021/07/31 09:27:33;;;;;;;;;;;19.00;69.60;;;;;;491577;240;1256;-45
2021/07/31 09:29:35;;;;;;;;;;;19.10;69.70;;;;;;491538;240;1183;-45
2021/07/31 09:31:36;;;;;;;;;;;19.10;69.80;;;;;;491914;240;1157;-45
2021/07/31 09:33:37;;;;;;;;;;;19.10;69.70;;;;;;491563;240;1186;-45
2021/07/31 09:35:39;;;;;;;;;;;19.00;69.60;;;;;;491582;240;2168;-45
2021/07/31 09:37:40;;;;;;;;;;;19.10;69.60;;;;;;491975;240;1147;-45
2021/07/31 09:39:41;;;;;;;;;;;19.10;69.70;;;;;;492051;240;946;-45
2021/07/31 09:41:43;;;;;;;;;;;19.10;69.60;;;;;;491654;240;1712;-45
2021/07/31 09:43:44;;;;;;;;;;;19.00;69.60;;;;;;491841;240;1199;-45
2021/07/31 09:45:48;;;;;;;;;;;19.00;69.60;;;;;;491595;240;1138;-45
2021/07/31 09:47:47;;;;;;;;;;;19.10;69.80;;;;;;491544;240;2218;-45
2021/07/31 09:49:50;;;;;;;;;;;19.10;69.80;;;;;;491582;240;1032;-45
2021/07/31 09:51:49;;;;;;;;;;;19.00;69.70;;;;;;491486;240;2379;-45
2021/07/31 09:53:51;;;;;;;;;;;19.00;69.60;;;;;;491564;240;1219;-45
2021/07/31 09:55:55;;;;;;;;;;;19.00;69.60;;;;;;491562;240;2187;-45
2021/07/31 09:57:53;;;;;;;;;;;19.10;69.80;;;;;;491712;240;1891;-45
2021/07/31 09:59:56;;;;;;;;;;;19.00;69.80;;;;;;491587;240;1097;-45
2021/07/31 10:01:56;;;;;;;;;;;19.00;69.80;;;;;;491671;240;1459;-45
2021/07/31 10:03:58;;;;;;;;;;;19.00;69.70;;;;;;491507;240;1187;-45
2021/07/31 10:05:59;;;;;;;;;;;19.00;69.70;;;;;;491615;240;1099;-45
2021/07/31 10:08:00;;;;;;;;;;;19.00;69.80;;;;;;491406;240;1025;-45
2021/07/31 10:10:02;;;;;;;;;;;19.00;69.80;;;;;;491489;240;1027;-45
2021/07/31 10:12:04;;;;;;;;;;;19.00;69.80;;;;;;491371;240;1154;-45
2021/07/31 10:14:05;;;;;;;;;;;19.00;69.70;;;;;;491382;240;1093;-45
2021/07/31 10:16:06;;;;;;;;;;;19.00;69.70;;;;;;491407;240;2129;-45
2021/07/31 10:18:08;;;;;;;;;;;19.00;69.80;;;;;;491596;240;1210;-44
2021/07/31 10:20:09;;;;;;;;;;;19.00;69.70;;;;;;491433;240;1133;-45
2021/07/31 10:22:10;;;;;;;;;;;19.00;69.80;;;;;;491791;240;1133;-45
2021/07/31 10:24:12;;;;;;;;;;;19.00;69.90;;;;;;492015;240;1129;-45
2021/07/31 10:26:13;;;;;;;;;;;19.00;69.80;;;;;;491588;240;1152;-45
2021/07/31 10:28:14;;;;;;;;;;;19.00;69.80;;;;;;492023;240;1147;-45
2021/07/31 10:30:16;;;;;;;;;;;19.00;69.90;;;;;;491612;240;1126;-45
2021/07/31 10:32:17;;;;;;;;;;;19.00;69.80;;;;;;491465;240;1244;-45
2021/07/31 10:34:18;;;;;;;;;;;19.00;69.70;;;;;;491738;240;1152;-45
2021/07/31 10:36:19;;;;;;;;;;;19.00;69.70;;;;;;491871;240;2133;-45
2021/07/31 10:38:21;;;;;;;;;;;19.00;69.90;;;;;;491757;240;1068;-44
2021/07/31 10:40:22;;;;;;;;;;;18.90;69.90;;;;;;491721;240;1159;-45
2021/07/31 10:42:23;;;;;;;;;;;18.90;69.80;;;;;;491452;240;1331;-45
2021/07/31 10:44:25;;;;;;;;;;;19.00;69.90;;;;;;491584;240;1049;-45
2021/07/31 10:46:26;;;;;;;;;;;19.00;69.80;;;;;;491483;240;1216;-45
2021/07/31 10:48:27;;;;;;;;;;;18.90;69.80;;;;;;492015;240;1192;-44
2021/07/31 10:50:29;;;;;;;;;;;18.90;69.90;;;;;;492071;240;1077;-45
2021/07/31 10:52:30;;;;;;;;;;;19.00;69.90;;;;;;491716;240;1214;-45
2021/07/31 10:54:31;;;;;;;;;;;18.90;69.90;;;;;;491796;240;1060;-45
2021/07/31 10:56:33;;;;;;;;;;;18.90;69.80;;;;;;491611;240;2133;-45
2021/07/31 10:58:34;;;;;;;;;;;18.90;69.80;;;;;;491553;240;1204;-45
2021/07/31 11:00:37;;;;;;;;;;;19.00;69.90;;;;;;491590;240;1160;-45
2021/07/31 11:02:37;;;;;;;;;;;19.00;69.80;;;;;;491495;240;2198;-45
2021/07/31 11:04:38;;;;;;;;;;;18.90;69.80;;;;;;491611;240;1024;-45
2021/07/31 11:06:39;;;;;;;;;;;18.90;69.90;;;;;;491960;240;1126;-46
2021/07/31 11:08:41;;;;;;;;;;;19.00;69.90;;;;;;491541;240;1091;-45
2021/07/31 11:10:45;;;;;;;;;;;19.00;69.80;;;;;;491529;240;1242;-45
2021/07/31 11:12:46;;;;;;;;;;;18.90;69.90;;;;;;491653;240;1417;-45
2021/07/31 11:14:47;;;;;;;;;;;18.90;69.90;;;;;;491637;240;1088;-45
2021/07/31 11:16:49;;;;;;;;;;;18.90;69.90;;;;;;491490;240;1397;-45
2021/07/31 11:18:50;;;;;;;;;;;19.00;69.80;;;;;;491987;240;1161;-45
2021/07/31 11:20:51;;;;;;;;;;;19.00;69.90;;;;;;491718;240;1061;-45
2021/07/31 11:22:53;;;;;;;;;;;19.00;69.90;;;;;;491546;240;1128;-45
2021/07/31 11:24:54;;;;;;;;;;;18.90;69.90;;;;;;491593;240;1230;-45
2021/07/31 11:26:56;;;;;;;;;;;18.90;69.90;;;;;;491847;240;1302;-45
2021/07/31 11:28:57;;;;;;;;;;;19.00;69.90;;;;;;491529;240;1276;-45
2021/07/31 11:30:58;;;;;;;;;;;18.90;69.90;;;;;;491723;240;1146;-45
2021/07/31 11:33:00;;;;;;;;;;;18.90;69.90;;;;;;491457;240;1118;-45
2021/07/31 11:35:01;;;;;;;;;;;18.90;69.80;;;;;;492054;240;2187;-45
2021/07/31 11:37:02;;;;;;;;;;;18.90;69.90;;;;;;491526;240;1118;-45
2021/07/31 11:39:04;;;;;;;;;;;18.90;69.90;;;;;;491694;240;1128;-45
2021/07/31 11:41:05;;;;;;;;;;;18.90;69.90;;;;;;491585;240;1462;-45
2021/07/31 11:43:06;;;;;;;;;;;18.90;70.00;;;;;;491717;240;1232;-45
2021/07/31 11:45:08;;;;;;;;;;;18.90;69.90;;;;;;491765;240;1056;-44
2021/07/31 11:47:09;;;;;;;;;;;18.90;69.90;;;;;;491465;240;1309;-45
2021/07/31 11:49:10;;;;;;;;;;;18.90;69.90;;;;;;491630;240;1066;-45
2021/07/31 11:51:12;;;;;;;;;;;18.90;69.90;;;;;;492068;240;1036;-45
2021/07/31 11:53:13;;;;;;;;;;;18.90;69.90;;;;;;491677;240;1040;-45
2021/07/31 11:55:14;;;;;;;;;;;18.90;70.00;;;;;;491686;240;2121;-46
2021/07/31 11:57:16;;;;;;;;;;;18.90;70.00;;;;;;491933;240;1102;-45